Time;durP1;ratioP1;P1;durP2;ratioP2;P2;SDS_P1;SDS_P2;PMS_P1;PMS_P2;Temp;Humidity;BMP_temperature;BMP_pressure;BME280_temperature;BME280_humidity;BME280_pressure;Samples;Min_cycle;Max_cycle;Signal;HPM_P1;HPM_P2
2022/11/09 00:00:01;;;;;;;7.05;2.72;;;;;;;;;;4985253;28;20420;-85
2022/11/09 00:02:27;;;;;;;6.60;2.73;;;;;;;;;;4982330;28;20421;-85
2022/11/09 00:04:53;;;;;;;5.32;2.75;;;;;;;;;;4976598;28;20488;-85
2022/11/09 00:07:19;;;;;;;7.80;2.90;;;;;;;;;;4991704;28;20446;-77
2022/11/09 00:09:45;;;;;;;5.13;2.63;;;;;;;;;;5011968;28;20430;-79
2022/11/09 00:12:11;;;;;;;6.83;2.90;;;;;;;;;;5002616;28;20590;-77
2022/11/09 00:14:38;;;;;;;5.63;2.70;;;;;;;;;;5015856;28;20399;-77
2022/11/09 00:17:04;;;;;;;7.10;2.85;;;;;;;;;;5012869;28;20494;-77
2022/11/09 00:19:30;;;;;;;7.47;2.80;;;;;;;;;;5009811;28;20418;-77
2022/11/09 00:21:56;;;;;;;5.57;2.80;;;;;;;;;;4994388;28;20435;-77
2022/11/09 00:24:22;;;;;;;7.22;2.50;;;;;;;;;;5012904;28;20410;-79
2022/11/09 00:26:48;;;;;;;5.68;2.85;;;;;;;;;;4987254;28;20429;-79
2022/11/09 00:29:14;;;;;;;7.50;2.78;;;;;;;;;;4997823;28;20432;-79
2022/11/09 00:31:40;;;;;;;6.63;2.70;;;;;;;;;;4988014;28;20429;-79
2022/11/09 00:34:06;;;;;;;6.80;2.67;;;;;;;;;;4976447;28;20432;-79
2022/11/09 00:36:32;;;;;;;7.03;2.92;;;;;;;;;;4979381;28;20428;-77
2022/11/09 00:38:59;;;;;;;8.80;3.00;;;;;;;;;;5002310;28;20447;-77
2022/11/09 00:41:26;;;;;;;7.68;3.00;;;;;;;;;;4986469;28;20427;-85
2022/11/09 00:43:52;;;;;;;8.45;2.78;;;;;;;;;;5010533;28;20423;-85
2022/11/09 00:46:18;;;;;;;9.25;2.70;;;;;;;;;;4997899;28;20431;-85
2022/11/09 00:48:45;;;;;;;6.72;2.72;;;;;;;;;;5000986;28;20455;-85
2022/11/09 00:51:11;;;;;;;6.03;2.60;;;;;;;;;;4985767;28;20425;-84
2022/11/09 00:53:37;;;;;;;6.57;2.60;;;;;;;;;;5004374;28;20441;-85
2022/11/09 00:56:08;;;;;;;7.22;2.42;;;;;;;;;;4996612;28;20490;-85
2022/11/09 00:58:34;;;;;;;5.63;2.72;;;;;;;;;;4998103;28;20409;-85
2022/11/09 01:01:06;;;;;;;6.20;2.80;;;;;;;;;;4983914;28;20463;-85
2022/11/09 01:03:32;;;;;;;6.85;3.00;;;;;;;;;;4995880;28;20416;-85
2022/11/09 01:06:01;;;;;;;7.97;2.83;;;;;;;;;;4997687;28;20413;-85
2022/11/09 01:08:27;;;;;;;7.45;3.03;;;;;;;;;;4998159;28;20410;-85
2022/11/09 01:10:53;;;;;;;5.93;2.50;;;;;;;;;;4965548;28;20428;-85
2022/11/09 01:13:19;;;;;;;7.63;2.70;;;;;;;;;;4992483;28;20432;-85
2022/11/09 01:15:46;;;;;;;6.38;2.83;;;;;;;;;;4996090;28;20435;-77
2022/11/09 01:18:13;;;;;;;7.68;2.70;;;;;;;;;;4994714;28;20507;-77
2022/11/09 01:20:46;;;;;;;6.95;3.00;;;;;;;;;;4994049;28;20416;-78
2022/11/09 01:23:13;;;;;;;7.95;3.35;;;;;;;;;;4997204;28;20416;-78
2022/11/09 01:25:40;;;;;;;7.15;3.15;;;;;;;;;;4997196;28;20424;-78
2022/11/09 01:28:07;;;;;;;5.70;2.78;;;;;;;;;;4974972;28;20436;-79
2022/11/09 01:30:34;;;;;;;7.25;2.70;;;;;;;;;;4975709;28;20452;-79
2022/11/09 01:33:00;;;;;;;7.10;2.60;;;;;;;;;;4997454;28;20205;-78
2022/11/09 01:35:26;;;;;;;8.77;2.80;;;;;;;;;;4998115;28;20516;-78
2022/11/09 01:37:52;;;;;;;3.50;2.20;;;;;;;;;;4981101;28;20194;-77
2022/11/09 01:40:18;;;;;;;5.80;2.60;;;;;;;;;;4994897;28;20498;-78
2022/11/09 01:42:43;;;;;;;7.55;2.80;;;;;;;;;;4977427;28;20436;-77
2022/11/09 01:45:19;;;;;;;7.20;2.57;;;;;;;;;;4999896;28;20459;-77
2022/11/09 01:47:50;;;;;;;7.13;2.83;;;;;;;;;;4991318;28;20472;-78
2022/11/09 01:50:19;;;;;;;8.70;2.92;;;;;;;;;;4995901;28;20513;-79
2022/11/09 01:52:46;;;;;;;7.70;2.88;;;;;;;;;;4994592;28;20486;-77
2022/11/09 01:55:17;;;;;;;8.10;2.90;;;;;;;;;;4999537;28;20413;-77
2022/11/09 01:57:50;;;;;;;7.13;3.10;;;;;;;;;;4989434;28;20428;-75
2022/11/09 02:00:17;;;;;;;7.55;2.90;;;;;;;;;;4988182;28;20428;-75
2022/11/09 02:02:45;;;;;;;6.83;2.90;;;;;;;;;;4992106;28;20505;-76
2022/11/09 02:05:14;;;;;;;7.95;3.00;;;;;;;;;;4996359;28;20439;-77
2022/11/09 02:07:41;;;;;;;7.72;3.10;;;;;;;;;;4991309;28;20434;-78
2022/11/09 02:10:09;;;;;;;8.77;3.03;;;;;;;;;;5000278;28;20425;-78
2022/11/09 02:12:35;;;;;;;8.70;3.08;;;;;;;;;;4972187;28;20491;-77
2022/11/09 02:15:06;;;;;;;7.90;3.07;;;;;;;;;;4994804;28;20501;-77
2022/11/09 02:17:33;;;;;;;7.68;3.05;;;;;;;;;;5002110;28;20419;-77
2022/11/09 02:20:00;;;;;;;6.83;2.90;;;;;;;;;;4984415;28;20460;-77
2022/11/09 02:22:26;;;;;;;8.02;3.35;;;;;;;;;;4982207;28;20429;-84
2022/11/09 02:24:52;;;;;;;8.93;3.00;;;;;;;;;;4977966;28;20413;-78
2022/11/09 02:27:19;;;;;;;7.50;3.10;;;;;;;;;;4981323;28;20451;-79
2022/11/09 02:29:47;;;;;;;7.45;2.80;;;;;;;;;;4993163;28;20429;-79
2022/11/09 02:32:16;;;;;;;6.28;3.10;;;;;;;;;;4971621;28;20490;-84
2022/11/09 02:34:42;;;;;;;6.13;3.03;;;;;;;;;;4987508;28;20513;-84
2022/11/09 02:37:08;;;;;;;8.23;2.92;;;;;;;;;;5000039;28;20426;-84
2022/11/09 02:39:34;;;;;;;8.82;3.40;;;;;;;;;;4969807;28;20428;-76
2022/11/09 02:42:02;;;;;;;7.80;3.17;;;;;;;;;;4999288;28;21329;-76
2022/11/09 02:44:29;;;;;;;7.53;2.90;;;;;;;;;;4977112;28;20412;-76
2022/11/09 02:46:55;;;;;;;5.53;2.70;;;;;;;;;;4991776;28;20444;-77
2022/11/09 02:49:21;;;;;;;6.85;2.90;;;;;;;;;;4986879;28;20436;-76
2022/11/09 02:51:47;;;;;;;7.60;3.00;;;;;;;;;;4980803;28;20551;-76
2022/11/09 02:54:13;;;;;;;8.15;2.95;;;;;;;;;;4976945;28;20520;-78
2022/11/09 02:56:39;;;;;;;5.78;2.90;;;;;;;;;;4981189;28;20528;-79
2022/11/09 02:59:05;;;;;;;7.35;2.90;;;;;;;;;;4999446;28;20416;-79
2022/11/09 03:01:31;;;;;;;5.27;2.70;;;;;;;;;;4982811;28;20478;-79
2022/11/09 03:03:57;;;;;;;7.03;2.90;;;;;;;;;;4997332;28;20431;-79
2022/11/09 03:06:33;;;;;;;7.33;2.90;;;;;;;;;;4971863;28;20428;-79
2022/11/09 03:09:00;;;;;;;5.73;2.60;;;;;;;;;;4971876;28;20520;-79
2022/11/09 03:11:26;;;;;;;7.13;2.78;;;;;;;;;;4993153;28;20456;-77
2022/11/09 03:13:51;;;;;;;6.97;2.93;;;;;;;;;;4999276;28;20540;-76
2022/11/09 03:16:17;;;;;;;7.30;2.83;;;;;;;;;;5003540;28;20412;-76
2022/11/09 03:18:43;;;;;;;4.70;2.67;;;;;;;;;;4991096;28;20439;-76
2022/11/09 03:21:09;;;;;;;7.85;2.95;;;;;;;;;;4970101;28;20440;-76
2022/11/09 03:23:35;;;;;;;6.95;3.00;;;;;;;;;;5000765;28;20434;-76
2022/11/09 03:26:01;;;;;;;8.20;2.85;;;;;;;;;;4984617;28;20511;-77
2022/11/09 03:28:27;;;;;;;8.35;2.97;;;;;;;;;;4986148;28;20427;-84
2022/11/09 03:30:54;;;;;;;7.87;3.00;;;;;;;;;;4996076;28;20431;-83
2022/11/09 03:33:20;;;;;;;8.13;2.77;;;;;;;;;;4994059;28;20511;-83
2022/11/09 03:35:46;;;;;;;7.60;2.92;;;;;;;;;;4979292;28;20432;-84
2022/11/09 03:38:12;;;;;;;8.20;2.90;;;;;;;;;;5003619;28;20498;-84
2022/11/09 03:40:38;;;;;;;7.57;2.83;;;;;;;;;;4986936;28;20451;-84
2022/11/09 03:43:04;;;;;;;6.63;2.80;;;;;;;;;;5005881;28;20427;-85
2022/11/09 03:45:30;;;;;;;8.30;2.80;;;;;;;;;;4978131;28;20405;-84
2022/11/09 03:47:59;;;;;;;7.78;2.80;;;;;;;;;;4978409;28;20567;-84
2022/11/09 03:50:26;;;;;;;7.97;2.72;;;;;;;;;;4996805;28;20416;-84
2022/11/09 03:52:52;;;;;;;6.68;2.72;;;;;;;;;;5001377;28;20435;-84
2022/11/09 03:55:18;;;;;;;9.18;3.10;;;;;;;;;;4977380;28;20417;-84
2022/11/09 03:57:45;;;;;;;8.32;2.90;;;;;;;;;;5000916;28;20444;-84
2022/11/09 04:00:12;;;;;;;6.47;2.65;;;;;;;;;;4989378;28;20406;-84
2022/11/09 04:02:38;;;;;;;7.93;2.90;;;;;;;;;;4985536;28;20480;-85
2022/11/09 04:05:04;;;;;;;6.82;2.83;;;;;;;;;;4977059;28;20433;-84
2022/11/09 04:07:30;;;;;;;6.80;2.57;;;;;;;;;;4979252;28;20193;-84
2022/11/09 04:09:56;;;;;;;6.67;2.40;;;;;;;;;;4994742;28;20189;-85
2022/11/09 04:12:22;;;;;;;7.45;2.60;;;;;;;;;;4978124;28;20456;-84
2022/11/09 04:14:48;;;;;;;8.93;2.43;;;;;;;;;;4983175;28;20180;-85
2022/11/09 04:17:14;;;;;;;7.90;2.70;;;;;;;;;;4977528;28;20257;-85
2022/11/09 04:19:40;;;;;;;6.07;2.33;;;;;;;;;;4977299;28;20205;-79
2022/11/09 04:22:06;;;;;;;7.80;2.60;;;;;;;;;;4990824;28;20194;-79
2022/11/09 04:24:32;;;;;;;8.50;2.75;;;;;;;;;;4999871;28;20462;-79
2022/11/09 04:26:58;;;;;;;7.13;2.78;;;;;;;;;;5010913;28;20458;-78
2022/11/09 04:29:24;;;;;;;8.43;2.97;;;;;;;;;;4993296;28;20433;-79
2022/11/09 04:31:50;;;;;;;7.17;2.60;;;;;;;;;;4969759;28;20191;-79
2022/11/09 04:34:17;;;;;;;7.63;2.57;;;;;;;;;;5009744;23;20184;-79
2022/11/09 04:36:43;;;;;;;8.27;2.70;;;;;;;;;;5071806;28;20437;-79
2022/11/09 04:39:09;;;;;;;11.07;2.57;;;;;;;;;;5092384;28;20218;-79
2022/11/09 04:41:36;;;;;;;5.97;2.20;;;;;;;;;;5070009;28;20190;-79
2022/11/09 04:44:02;;;;;;;7.53;2.50;;;;;;;;;;5089763;28;20191;-79
2022/11/09 04:46:28;;;;;;;8.37;2.80;;;;;;;;;;5075851;28;20191;-79
2022/11/09 04:48:54;;;;;;;10.30;2.70;;;;;;;;;;5075120;28;20182;-79
2022/11/09 04:51:20;;;;;;;6.83;2.60;;;;;;;;;;5085277;28;20206;-77
2022/11/09 04:53:45;;;;;;;8.73;2.53;;;;;;;;;;5052132;28;20298;-77
2022/11/09 04:56:12;;;;;;;10.57;2.40;;;;;;;;;;5057928;28;20195;-77
2022/11/09 04:58:38;;;;;;;8.50;2.50;;;;;;;;;;5048242;28;20186;-77
2022/11/09 05:01:08;;;;;;;9.90;2.70;;;;;;;;;;5086516;28;20198;-77
2022/11/09 05:03:34;;;;;;;8.37;2.43;;;;;;;;;;5077202;28;20265;-77
2022/11/09 05:06:00;;;;;;;9.70;2.67;;;;;;;;;;5065280;28;20194;-77
2022/11/09 05:08:26;;;;;;;8.20;2.80;;;;;;;;;;5058850;28;20218;-85
2022/11/09 05:10:56;;;;;;;9.33;2.87;;;;;;;;;;5077741;28;20191;-85
2022/11/09 05:13:22;;;;;;;11.30;2.90;;;;;;;;;;5079098;28;20206;-85
2022/11/09 05:15:48;;;;;;;8.50;2.50;;;;;;;;;;5062927;28;20190;-84
2022/11/09 05:18:14;;;;;;;11.17;2.73;;;;;;;;;;5063843;28;20179;-85
2022/11/09 05:20:40;;;;;;;9.17;2.73;;;;;;;;;;5063597;28;20182;-84
2022/11/09 05:25:51;;;;;;;13.10;3.00;;;;;;;;;;5071876;28;20272;-85
2022/11/09 05:28:17;;;;;;;10.37;2.80;;;;;;;;;;5078548;28;20191;-84
2022/11/09 05:30:43;;;;;;;13.87;2.90;;;;;;;;;;5058460;28;20185;-85
2022/11/09 05:33:09;;;;;;;10.50;2.50;;;;;;;;;;5062294;28;20210;-84
2022/11/09 05:35:35;;;;;;;9.87;3.10;;;;;;;;;;5061959;28;20258;-84
2022/11/09 05:38:01;;;;;;;11.68;2.80;;;;;;;;;;5078700;28;20424;-85
2022/11/09 05:40:27;;;;;;;12.65;3.08;;;;;;;;;;5061784;28;20389;-85
2022/11/09 05:42:54;;;;;;;10.80;3.40;;;;;;;;;;5077518;28;20437;-80
2022/11/09 05:45:21;;;;;;;9.40;3.00;;;;;;;;;;5061834;28;20416;-79
2022/11/09 05:47:46;;;;;;;9.17;2.80;;;;;;;;;;5061556;28;20179;-79
2022/11/09 05:50:15;;;;;;;13.13;2.93;;;;;;;;;;5079057;28;20189;-77
2022/11/09 05:52:41;;;;;;;10.77;3.10;;;;;;;;;;5092427;28;20527;-77
2022/11/09 05:55:07;;;;;;;11.95;3.25;;;;;;;;;;5056617;28;20515;-77
2022/11/09 05:57:33;;;;;;;12.20;3.50;;;;;;;;;;5055569;28;20434;-79
2022/11/09 05:59:59;;;;;;;11.57;3.40;;;;;;;;;;5059608;28;20558;-79
2022/11/09 06:02:25;;;;;;;12.63;3.45;;;;;;;;;;5092892;28;20507;-79
2022/11/09 06:04:51;;;;;;;14.27;3.10;;;;;;;;;;5076324;28;20430;-79
2022/11/09 06:07:17;;;;;;;13.77;3.40;;;;;;;;;;5073090;28;20503;-79
2022/11/09 06:09:43;;;;;;;12.88;3.42;;;;;;;;;;5068371;28;20424;-79
2022/11/09 06:12:09;;;;;;;15.18;3.25;;;;;;;;;;5054919;28;20437;-79
2022/11/09 06:14:35;;;;;;;11.63;3.42;;;;;;;;;;5085725;28;20420;-77
2022/11/09 06:17:01;;;;;;;12.25;3.40;;;;;;;;;;5060683;28;20413;-77
2022/11/09 06:19:29;;;;;;;13.80;3.33;;;;;;;;;;5095468;28;20174;-77
2022/11/09 06:21:55;;;;;;;17.07;3.27;;;;;;;;;;5095440;28;20170;-77
2022/11/09 06:24:20;;;;;;;16.90;3.63;;;;;;;;;;5076759;28;20492;-77
2022/11/09 06:26:46;;;;;;;14.75;3.47;;;;;;;;;;5059930;28;20495;-77
2022/11/09 06:29:12;;;;;;;10.93;3.17;;;;;;;;;;5093200;28;20466;-77
2022/11/09 06:31:38;;;;;;;16.67;3.40;;;;;;;;;;5076808;28;20401;-77
2022/11/09 06:34:04;;;;;;;13.68;3.60;;;;;;;;;;5059792;28;20432;-77
2022/11/09 06:36:30;;;;;;;11.70;3.35;;;;;;;;;;5059757;28;20436;-77
2022/11/09 06:38:56;;;;;;;15.30;3.55;;;;;;;;;;5059706;28;20432;-77
2022/11/09 06:41:22;;;;;;;10.77;2.87;;;;;;;;;;5060332;28;20196;-77
2022/11/09 06:43:48;;;;;;;12.90;2.70;;;;;;;;;;5094090;28;20266;-78
2022/11/09 06:46:17;;;;;;;12.60;3.10;;;;;;;;;;5059880;28;20416;-77
2022/11/09 06:48:43;;;;;;;14.93;3.67;;;;;;;;;;5092918;28;20430;-79
2022/11/09 06:51:11;;;;;;;13.75;3.42;;;;;;;;;;5093463;28;20405;-79
2022/11/09 06:53:38;;;;;;;14.30;3.70;;;;;;;;;;5092935;28;20435;-79
2022/11/09 06:56:05;;;;;;;11.15;3.53;;;;;;;;;;5094291;28;20417;-79
2022/11/09 06:58:31;;;;;;;12.93;3.63;;;;;;;;;;5092836;28;20442;-79
2022/11/09 07:00:57;;;;;;;12.73;3.65;;;;;;;;;;5092719;28;20400;-79
2022/11/09 07:03:24;;;;;;;14.25;3.67;;;;;;;;;;5092566;28;20465;-79
2022/11/09 07:05:51;;;;;;;17.07;3.83;;;;;;;;;;5092861;28;20405;-77
2022/11/09 07:08:18;;;;;;;14.23;3.78;;;;;;;;;;5092583;28;20493;-77
2022/11/09 07:10:44;;;;;;;14.55;3.50;;;;;;;;;;5075778;28;20397;-78
2022/11/09 07:13:11;;;;;;;9.50;3.07;;;;;;;;;;5093532;28;20202;-78
2022/11/09 07:15:37;;;;;;;14.70;3.72;;;;;;;;;;5076046;28;20404;-77
2022/11/09 07:18:05;;;;;;;13.85;3.53;;;;;;;;;;5059503;28;20505;-77
2022/11/09 07:20:31;;;;;;;11.75;3.38;;;;;;;;;;5092282;28;20472;-77
2022/11/09 07:22:57;;;;;;;11.93;3.70;;;;;;;;;;5093175;28;20411;-77
2022/11/09 07:25:24;;;;;;;16.00;3.60;;;;;;;;;;5076804;28;20413;-77
2022/11/09 07:27:50;;;;;;;15.30;3.60;;;;;;;;;;5093784;28;20405;-77
2022/11/09 07:30:17;;;;;;;14.60;3.90;;;;;;;;;;5058679;28;20422;-77
2022/11/09 07:32:43;;;;;;;13.00;3.30;;;;;;;;;;5072498;28;20458;-77
2022/11/09 07:35:09;;;;;;;11.63;2.97;;;;;;;;;;5073275;28;20246;-84
2022/11/09 07:37:35;;;;;;;13.33;3.17;;;;;;;;;;5074384;28;20175;-79
2022/11/09 07:40:01;;;;;;;13.27;2.93;;;;;;;;;;5056763;28;20182;-79
2022/11/09 07:42:27;;;;;;;13.03;3.17;;;;;;;;;;5074142;28;20183;-79
2022/11/09 07:44:53;;;;;;;9.97;3.17;;;;;;;;;;5056110;28;20183;-79
2022/11/09 07:47:19;;;;;;;13.37;3.40;;;;;;;;;;5073909;28;20187;-79
2022/11/09 07:49:46;;;;;;;15.20;3.42;;;;;;;;;;5073947;28;20442;-79
2022/11/09 07:52:12;;;;;;;11.70;3.47;;;;;;;;;;5072383;28;20575;-78
2022/11/09 07:54:38;;;;;;;12.23;3.30;;;;;;;;;;5072713;28;20402;-79
2022/11/09 07:57:05;;;;;;;15.97;3.30;;;;;;;;;;5086396;28;20181;-79
2022/11/09 07:59:31;;;;;;;13.10;3.50;;;;;;;;;;5078846;28;20405;-79
2022/11/09 08:01:58;;;;;;;16.07;3.17;;;;;;;;;;5093144;28;20170;-79
2022/11/09 08:04:24;;;;;;;15.00;4.18;;;;;;;;;;5093512;28;20422;-79
2022/11/09 08:06:53;;;;;;;14.03;3.40;;;;;;;;;;5076392;28;20182;-79
2022/11/09 08:09:19;;;;;;;14.82;3.28;;;;;;;;;;5094118;28;20454;-79
2022/11/09 08:11:45;;;;;;;15.57;4.23;;;;;;;;;;5092410;28;20424;-79
2022/11/09 08:14:11;;;;;;;9.50;3.07;;;;;;;;;;5093179;28;20178;-79
2022/11/09 08:16:37;;;;;;;11.77;3.37;;;;;;;;;;5098972;28;20178;-79
2022/11/09 08:19:03;;;;;;;11.33;3.27;;;;;;;;;;5061751;28;20186;-79
2022/11/09 08:21:29;;;;;;;11.47;3.50;;;;;;;;;;5076711;28;20201;-79
2022/11/09 08:23:55;;;;;;;7.73;2.50;;;;;;;;;;5094086;28;20178;-79
2022/11/09 08:26:21;;;;;;;10.63;3.10;;;;;;;;;;5093939;28;20220;-79
2022/11/09 08:28:47;;;;;;;11.73;3.23;;;;;;;;;;5076432;28;20170;-77
2022/11/09 08:31:13;;;;;;;11.37;3.23;;;;;;;;;;5059206;28;20206;-78
2022/11/09 08:33:41;;;;;;;14.33;3.27;;;;;;;;;;5063122;28;20245;-78
2022/11/09 08:36:17;;;;;;;12.57;3.10;;;;;;;;;;5096458;28;20218;-78
2022/11/09 08:38:43;;;;;;;11.47;2.90;;;;;;;;;;5097970;28;20227;-78
2022/11/09 08:41:10;;;;;;;10.27;2.90;;;;;;;;;;5096763;28;20179;-78
2022/11/09 08:43:36;;;;;;;9.47;2.63;;;;;;;;;;5096532;28;20211;-78
2022/11/09 08:46:02;;;;;;;10.70;2.80;;;;;;;;;;5096553;28;20186;-78
2022/11/09 08:48:28;;;;;;;10.07;3.00;;;;;;;;;;5063016;28;20182;-78
2022/11/09 08:50:56;;;;;;;10.40;3.37;;;;;;;;;;5062934;28;20179;-78
2022/11/09 08:53:23;;;;;;;11.10;3.00;;;;;;;;;;5096281;28;20210;-78
2022/11/09 08:55:49;;;;;;;11.47;2.73;;;;;;;;;;5096821;28;20232;-78
2022/11/09 08:58:15;;;;;;;11.57;2.90;;;;;;;;;;5096567;28;20175;-78
2022/11/09 09:00:41;;;;;;;8.77;2.90;;;;;;;;;;5096362;28;20178;-86
2022/11/09 09:03:07;;;;;;;10.40;2.80;;;;;;;;;;5096277;28;20178;-86
2022/11/09 09:05:36;;;;;;;12.43;3.10;;;;;;;;;;5096173;28;20413;-86
2022/11/09 09:08:04;;;;;;;9.20;2.57;;;;;;;;;;5063605;28;20232;-86
2022/11/09 09:10:31;;;;;;;13.57;3.40;;;;;;;;;;5095462;28;20508;-85
2022/11/09 09:12:57;;;;;;;12.40;2.80;;;;;;;;;;5096122;28;20217;-86
2022/11/09 09:15:24;;;;;;;8.30;2.90;;;;;;;;;;5079189;28;20188;-86
2022/11/09 09:17:50;;;;;;;9.03;2.43;;;;;;;;;;5097006;28;20202;-85
2022/11/09 09:20:16;;;;;;;10.93;2.67;;;;;;;;;;5095797;28;20186;-86
2022/11/09 09:22:43;;;;;;;10.20;2.77;;;;;;;;;;5062461;28;20187;-85
2022/11/09 09:25:09;;;;;;;12.27;3.38;;;;;;;;;;5096276;28;20483;-86
2022/11/09 09:27:35;;;;;;;10.30;2.70;;;;;;;;;;5096616;28;20171;-85
2022/11/09 09:30:01;;;;;;;9.70;2.90;;;;;;;;;;5095822;28;20324;-86
2022/11/09 09:32:28;;;;;;;12.57;2.90;;;;;;;;;;5095379;28;20433;-86
2022/11/09 09:34:54;;;;;;;7.40;2.80;;;;;;;;;;5062598;28;20226;-80
2022/11/09 09:37:20;;;;;;;10.30;3.03;;;;;;;;;;5095292;28;20186;-80
2022/11/09 09:39:46;;;;;;;10.82;3.20;;;;;;;;;;5094277;28;20409;-80
2022/11/09 09:42:20;;;;;;;8.63;2.60;;;;;;;;;;5078380;28;20179;-80
2022/11/09 09:44:52;;;;;;;10.07;2.83;;;;;;;;;;5095385;28;20179;-78
2022/11/09 09:47:27;;;;;;;9.43;2.77;;;;;;;;;;5094995;28;20514;-78
2022/11/09 09:49:53;;;;;;;10.57;2.57;;;;;;;;;;5094738;28;20183;-78
2022/11/09 09:52:19;;;;;;;10.80;3.13;;;;;;;;;;5095531;28;20198;-78
2022/11/09 09:54:57;;;;;;;9.80;2.93;;;;;;;;;;5094857;28;20171;-78
2022/11/09 09:57:23;;;;;;;9.70;3.13;;;;;;;;;;5094020;28;20357;-78
2022/11/09 09:59:51;;;;;;;10.17;2.63;;;;;;;;;;5060638;28;20187;-79
2022/11/09 10:02:22;;;;;;;9.30;2.80;;;;;;;;;;5095143;28;20175;-79
2022/11/09 10:04:48;;;;;;;7.43;2.50;;;;;;;;;;5095107;28;20184;-79
2022/11/09 10:07:20;;;;;;;11.07;2.80;;;;;;;;;;5094604;28;20182;-79
2022/11/09 10:09:59;;;;;;;9.47;2.67;;;;;;;;;;5094774;28;20190;-78
2022/11/09 10:12:34;;;;;;;8.07;2.80;;;;;;;;;;5094403;28;20297;-78
2022/11/09 10:15:00;;;;;;;8.87;3.00;;;;;;;;;;5094378;28;20257;-78
2022/11/09 10:17:33;;;;;;;8.10;2.40;;;;;;;;;;5094417;28;20203;-78
2022/11/09 10:20:08;;;;;;;11.97;2.67;;;;;;;;;;5095508;28;20171;-78
2022/11/09 10:22:40;;;;;;;10.33;3.10;;;;;;;;;;5093781;28;20440;-79
2022/11/09 10:25:09;;;;;;;11.43;2.97;;;;;;;;;;5094253;28;20214;-80
2022/11/09 10:27:36;;;;;;;15.07;2.80;;;;;;;;;;5094004;28;20178;-80
2022/11/09 10:30:18;;;;;;;10.17;2.53;;;;;;;;;;5094169;28;20204;-80
2022/11/09 10:32:46;;;;;;;8.40;2.30;;;;;;;;;;5093852;28;20217;-80
2022/11/09 10:35:12;;;;;;;8.87;2.40;;;;;;;;;;5088938;28;20274;-80
2022/11/09 10:37:45;;;;;;;8.37;2.60;;;;;;;;;;5092255;28;20265;-80
2022/11/09 10:40:17;;;;;;;8.23;2.67;;;;;;;;;;5094142;28;20174;-80
2022/11/09 10:42:52;;;;;;;8.20;2.30;;;;;;;;;;5095117;28;20182;-86
2022/11/09 10:45:29;;;;;;;7.53;2.40;;;;;;;;;;5094643;28;20171;-86
2022/11/09 10:47:55;;;;;;;11.67;2.90;;;;;;;;;;5095090;28;20174;-78
2022/11/09 10:50:30;;;;;;;11.87;2.60;;;;;;;;;;5087569;28;20182;-78
2022/11/09 10:53:14;;;;;;;11.70;2.37;;;;;;;;;;5094290;28;20229;-78
2022/11/09 10:55:49;;;;;;;8.60;2.70;;;;;;;;;;5091078;28;20182;-78
2022/11/09 10:58:23;;;;;;;10.43;2.57;;;;;;;;;;5094401;28;20231;-79
2022/11/09 11:00:57;;;;;;;13.07;2.40;;;;;;;;;;5076484;28;20175;-79
2022/11/09 11:03:24;;;;;;;11.53;2.50;;;;;;;;;;5094571;28;20205;-79
2022/11/09 11:05:57;;;;;;;8.53;2.30;;;;;;;;;;5076329;28;20182;-79
2022/11/09 11:08:28;;;;;;;10.57;2.60;;;;;;;;;;5094515;28;20182;-79
2022/11/09 11:11:27;;;;;;;12.17;2.67;;;;;;;;;;5076568;28;20212;-79
2022/11/09 11:14:05;;;;;;;8.00;2.40;;;;;;;;;;5050004;28;20279;-79
2022/11/09 11:16:35;;;;;;;11.97;2.53;;;;;;;;;;5076420;28;20189;-79
2022/11/09 11:19:01;;;;;;;11.73;2.50;;;;;;;;;;5076474;28;20182;-79
2022/11/09 11:21:28;;;;;;;8.83;2.67;;;;;;;;;;5093943;28;20253;-80
2022/11/09 11:24:12;;;;;;;7.77;2.53;;;;;;;;;;5094358;28;20174;-80
2022/11/09 11:26:56;;;;;;;8.63;2.67;;;;;;;;;;5094061;28;20217;-80
2022/11/09 11:29:37;;;;;;;11.10;2.53;;;;;;;;;;5076147;28;20174;-80
2022/11/09 11:32:03;;;;;;;8.47;2.90;;;;;;;;;;5094116;28;20200;-77
2022/11/09 11:34:29;;;;;;;6.43;2.40;;;;;;;;;;5059606;28;20198;-77
2022/11/09 11:36:55;;;;;;;5.60;2.00;;;;;;;;;;5075916;28;20279;-78
2022/11/09 11:39:30;;;;;;;8.93;2.50;;;;;;;;;;5076241;28;20269;-78
2022/11/09 11:41:59;;;;;;;14.03;2.63;;;;;;;;;;5076291;28;20200;-77
2022/11/09 11:44:44;;;;;;;11.33;2.40;;;;;;;;;;5076186;28;20167;-78
2022/11/09 11:47:10;;;;;;;12.00;2.70;;;;;;;;;;5093839;28;20173;-78
2022/11/09 11:49:43;;;;;;;7.03;2.63;;;;;;;;;;5076151;28;20256;-85
2022/11/09 11:52:27;;;;;;;8.50;2.47;;;;;;;;;;5094189;28;20192;-85
2022/11/09 11:54:53;;;;;;;8.27;2.83;;;;;;;;;;5076209;28;20185;-85
2022/11/09 11:57:19;;;;;;;6.93;2.07;;;;;;;;;;5076260;28;20308;-85
2022/11/09 11:59:57;;;;;;;10.17;2.73;;;;;;;;;;5076200;28;20269;-85
2022/11/09 12:02:32;;;;;;;9.20;2.67;;;;;;;;;;5094175;28;20201;-85
2022/11/09 12:05:08;;;;;;;7.57;2.37;;;;;;;;;;5093982;28;20202;-80
2022/11/09 12:07:47;;;;;;;7.40;2.40;;;;;;;;;;5095589;28;20259;-80
2022/11/09 12:10:21;;;;;;;6.87;2.03;;;;;;;;;;5098017;28;20178;-80
2022/11/09 12:12:50;;;;;;;9.40;2.20;;;;;;;;;;5097892;28;20252;-80
2022/11/09 12:15:46;;;;;;;7.00;2.20;;;;;;;;;;5097887;28;20174;-79
2022/11/09 12:18:18;;;;;;;8.40;2.40;;;;;;;;;;5080047;28;20202;-79
2022/11/09 12:20:47;;;;;;;8.40;2.00;;;;;;;;;;5097695;28;20170;-79
2022/11/09 12:23:26;;;;;;;7.80;2.20;;;;;;;;;;5079700;28;20221;-79
2022/11/09 12:25:55;;;;;;;8.98;2.47;;;;;;;;;;5097725;28;20434;-79
2022/11/09 12:28:24;;;;;;;9.63;2.20;;;;;;;;;;5097821;28;20213;-79
2022/11/09 12:30:53;;;;;;;8.37;2.60;;;;;;;;;;5080417;28;20190;-79
2022/11/09 12:33:22;;;;;;;6.87;2.00;;;;;;;;;;5100186;28;20206;-79
2022/11/09 12:35:56;;;;;;;9.00;2.53;;;;;;;;;;5080020;28;20215;-79
2022/11/09 12:38:27;;;;;;;9.70;2.57;;;;;;;;;;5097718;28;20182;-86
2022/11/09 12:40:53;;;;;;;8.53;2.20;;;;;;;;;;5079668;28;20186;-84
2022/11/09 12:43:42;;;;;;;12.73;2.20;;;;;;;;;;5097476;28;20171;-85
2022/11/09 12:46:09;;;;;;;7.60;2.30;;;;;;;;;;5079446;28;20273;-85
2022/11/09 12:48:35;;;;;;;8.07;2.20;;;;;;;;;;5079498;28;20182;-86
2022/11/09 12:51:03;;;;;;;10.13;2.27;;;;;;;;;;5062887;28;20189;-85
2022/11/09 12:53:34;;;;;;;9.73;2.10;;;;;;;;;;5098162;28;20206;-86
2022/11/09 12:56:10;;;;;;;6.47;2.00;;;;;;;;;;5079739;28;20175;-85
2022/11/09 12:58:37;;;;;;;9.27;2.00;;;;;;;;;;5079619;28;20182;-85
2022/11/09 13:01:05;;;;;;;8.30;2.10;;;;;;;;;;5079449;28;20212;-79
2022/11/09 13:03:33;;;;;;;9.73;2.30;;;;;;;;;;5078998;28;20236;-79
2022/11/09 13:06:11;;;;;;;9.03;2.00;;;;;;;;;;5096745;28;20179;-79
2022/11/09 13:08:38;;;;;;;12.87;2.53;;;;;;;;;;5078876;28;20209;-78
2022/11/09 13:11:08;;;;;;;9.13;2.57;;;;;;;;;;5078827;28;20186;-79
2022/11/09 13:13:34;;;;;;;7.03;2.37;;;;;;;;;;5096681;28;20281;-79
2022/11/09 13:16:10;;;;;;;11.07;1.90;;;;;;;;;;5078715;28;20173;-80
2022/11/09 13:18:39;;;;;;;6.67;2.03;;;;;;;;;;5077109;28;20208;-80
2022/11/09 13:21:21;;;;;;;8.97;2.30;;;;;;;;;;5078795;28;20175;-79
2022/11/09 13:23:47;;;;;;;8.67;2.17;;;;;;;;;;5097030;28;20182;-80
2022/11/09 13:26:32;;;;;;;8.07;1.87;;;;;;;;;;5062614;28;20187;-79
2022/11/09 13:29:10;;;;;;;8.03;2.10;;;;;;;;;;5076998;28;20182;-85
2022/11/09 13:31:54;;;;;;;7.00;1.80;;;;;;;;;;5076670;28;20167;-84
2022/11/09 13:34:39;;;;;;;6.70;1.97;;;;;;;;;;5076440;28;20312;-85
2022/11/09 13:37:24;;;;;;;5.70;1.47;;;;;;;;;;5076456;28;20245;-85
2022/11/09 13:39:50;;;;;;;6.90;1.70;;;;;;;;;;5075623;28;20250;-85
2022/11/09 13:42:25;;;;;;;6.67;1.87;;;;;;;;;;5041987;28;20179;-85
2022/11/09 13:44:51;;;;;;;8.67;1.93;;;;;;;;;;5076533;28;20237;-85
2022/11/09 13:47:27;;;;;;;6.83;2.10;;;;;;;;;;5075128;28;20179;-84
2022/11/09 13:49:53;;;;;;;6.20;1.87;;;;;;;;;;5075916;28;20182;-85
2022/11/09 13:52:41;;;;;;;7.73;1.90;;;;;;;;;;5074988;28;20179;-85
2022/11/09 13:55:15;;;;;;;6.30;2.10;;;;;;;;;;5076063;28;20167;-85
2022/11/09 13:57:43;;;;;;;5.70;1.50;;;;;;;;;;5074956;28;20174;-85
2022/11/09 14:00:17;;;;;;;6.67;1.60;;;;;;;;;;5074819;28;20243;-85
2022/11/09 14:02:51;;;;;;;5.57;1.60;;;;;;;;;;5075136;28;20182;-85
2022/11/09 14:05:29;;;;;;;7.30;1.90;;;;;;;;;;5074860;28;20270;-85
2022/11/09 14:07:55;;;;;;;6.60;2.03;;;;;;;;;;5074863;28;20273;-84
2022/11/09 14:10:32;;;;;;;6.73;1.80;;;;;;;;;;5075049;28;20190;-85
2022/11/09 14:13:13;;;;;;;7.90;2.13;;;;;;;;;;5075722;28;20202;-85
2022/11/09 14:16:04;;;;;;;7.20;2.10;;;;;;;;;;5074724;28;20193;-84
2022/11/09 14:18:37;;;;;;;7.37;2.17;;;;;;;;;;5075952;28;20175;-77
2022/11/09 14:21:09;;;;;;;5.67;1.83;;;;;;;;;;5074530;28;20186;-78
2022/11/09 14:23:35;;;;;;;6.57;1.97;;;;;;;;;;5075692;28;20182;-77
2022/11/09 14:26:08;;;;;;;6.70;1.53;;;;;;;;;;5041630;28;20184;-77
2022/11/09 14:28:36;;;;;;;6.73;1.50;;;;;;;;;;5078633;28;20243;-78
2022/11/09 14:31:02;;;;;;;9.17;1.70;;;;;;;;;;5093885;28;20183;-78
2022/11/09 14:33:29;;;;;;;5.03;1.60;;;;;;;;;;5077482;28;20236;-77
2022/11/09 14:35:57;;;;;;;4.90;1.67;;;;;;;;;;5077441;28;20230;-79
2022/11/09 14:38:26;;;;;;;8.63;2.17;;;;;;;;;;5078621;28;20186;-85
2022/11/09 14:40:53;;;;;;;6.93;1.77;;;;;;;;;;5077820;28;20182;-77
2022/11/09 14:43:27;;;;;;;5.67;1.70;;;;;;;;;;5074385;28;20208;-77
2022/11/09 14:46:00;;;;;;;5.37;2.10;;;;;;;;;;5073554;28;20189;-77
2022/11/09 14:48:27;;;;;;;4.77;1.80;;;;;;;;;;5075178;28;20210;-78